sensor_id;sensor_type;location;lat;lon;timestamp;temperature;humidity
22456;DHT22;11395;53.204;6.502;2023-03-12T00:00:54;21.80;53.60
22456;DHT22;11395;53.204;6.502;2023-03-12T00:03:20;21.80;53.70
22456;DHT22;11395;53.204;6.502;2023-03-12T00:05:47;21.70;53.60
22456;DHT22;11395;53.204;6.502;2023-03-12T00:08:13;21.70;53.70
22456;DHT22;11395;53.204;6.502;2023-03-12T00:10:39;21.70;53.80
22456;DHT22;11395;53.204;6.502;2023-03-12T00:13:06;21.60;53.70
22456;DHT22;11395;53.204;6.502;2023-03-12T00:15:37;21.60;53.80
22456;DHT22;11395;53.204;6.502;2023-03-12T00:18:04;21.50;53.80
22456;DHT22;11395;53.204;6.502;2023-03-12T00:20:31;21.50;53.80
22456;DHT22;11395;53.204;6.502;2023-03-12T00:22:57;21.40;53.80
22456;DHT22;11395;53.204;6.502;2023-03-12T00:25:23;21.40;53.80
22456;DHT22;11395;53.204;6.502;2023-03-12T00:27:50;21.40;53.70
22456;DHT22;11395;53.204;6.502;2023-03-12T00:30:16;21.30;53.80
22456;DHT22;11395;53.204;6.502;2023-03-12T00:32:42;21.30;53.60
22456;DHT22;11395;53.204;6.502;2023-03-12T00:35:08;21.30;53.70
22456;DHT22;11395;53.204;6.502;2023-03-12T00:37:36;21.20;53.60
22456;DHT22;11395;53.204;6.502;2023-03-12T00:40:02;21.20;53.60
22456;DHT22;11395;53.204;6.502;2023-03-12T00:42:30;21.20;53.60
22456;DHT22;11395;53.204;6.502;2023-03-12T00:44:57;21.10;53.50
22456;DHT22;11395;53.204;6.502;2023-03-12T00:47:23;21.10;53.50
22456;DHT22;11395;53.204;6.502;2023-03-12T00:49:49;21.00;53.50
22456;DHT22;11395;53.204;6.502;2023-03-12T00:52:15;21.00;53.50
22456;DHT22;11395;53.204;6.502;2023-03-12T00:54:41;21.00;53.60
22456;DHT22;11395;53.204;6.502;2023-03-12T00:57:07;21.00;53.60
22456;DHT22;11395;53.204;6.502;2023-03-12T00:59:35;20.90;53.60
22456;DHT22;11395;53.204;6.502;2023-03-12T01:02:06;20.90;53.60
22456;DHT22;11395;53.204;6.502;2023-03-12T01:04:32;20.90;53.60
22456;DHT22;11395;53.204;6.502;2023-03-12T01:06:59;20.80;53.50
22456;DHT22;11395;53.204;6.502;2023-03-12T01:09:25;20.80;53.60
22456;DHT22;11395;53.204;6.502;2023-03-12T01:11:51;20.80;53.70
22456;DHT22;11395;53.204;6.502;2023-03-12T01:14:17;20.80;53.70
22456;DHT22;11395;53.204;6.502;2023-03-12T01:16:43;20.70;53.60
22456;DHT22;11395;53.204;6.502;2023-03-12T01:19:11;20.70;53.70
22456;DHT22;11395;53.204;6.502;2023-03-12T01:21:38;20.70;53.80
22456;DHT22;11395;53.204;6.502;2023-03-12T01:24:05;20.60;53.90
22456;DHT22;11395;53.204;6.502;2023-03-12T01:26:31;20.60;53.90
22456;DHT22;11395;53.204;6.502;2023-03-12T01:28:58;20.60;54.00
22456;DHT22;11395;53.204;6.502;2023-03-12T01:31:24;20.50;54.10
22456;DHT22;11395;53.204;6.502;2023-03-12T01:33:52;20.50;54.40
22456;DHT22;11395;53.204;6.502;2023-03-12T01:36:23;20.50;54.20
22456;DHT22;11395;53.204;6.502;2023-03-12T01:38:54;20.40;55.40
22456;DHT22;11395;53.204;6.502;2023-03-12T01:41:22;20.40;54.40
22456;DHT22;11395;53.204;6.502;2023-03-12T01:43:49;20.40;54.70
22456;DHT22;11395;53.204;6.502;2023-03-12T01:51:19;20.30;54.30
22456;DHT22;11395;53.204;6.502;2023-03-12T01:53:49;20.20;55.50
22456;DHT22;11395;53.204;6.502;2023-03-12T01:56:18;20.20;55.70
22456;DHT22;11395;53.204;6.502;2023-03-12T01:58:50;20.20;55.90
22456;DHT22;11395;53.204;6.502;2023-03-12T02:01:19;20.10;56.20
22456;DHT22;11395;53.204;6.502;2023-03-12T02:03:47;20.10;55.60
22456;DHT22;11395;53.204;6.502;2023-03-12T02:06:19;20.00;55.70
22456;DHT22;11395;53.204;6.502;2023-03-12T02:08:46;20.00;55.70
22456;DHT22;11395;53.204;6.502;2023-03-12T02:11:13;20.00;55.50
22456;DHT22;11395;53.204;6.502;2023-03-12T02:13:40;19.90;55.90
22456;DHT22;11395;53.204;6.502;2023-03-12T02:16:07;19.90;55.50
22456;DHT22;11395;53.204;6.502;2023-03-12T02:18:34;19.90;55.70
22456;DHT22;11395;53.204;6.502;2023-03-12T02:21:19;19.80;55.70
22456;DHT22;11395;53.204;6.502;2023-03-12T02:23:56;19.80;55.50
22456;DHT22;11395;53.204;6.502;2023-03-12T02:26:29;19.80;54.60
22456;DHT22;11395;53.204;6.502;2023-03-12T02:28:59;19.80;56.00
22456;DHT22;11395;53.204;6.502;2023-03-12T02:31:28;19.70;56.40
22456;DHT22;11395;53.204;6.502;2023-03-12T02:33:56;19.70;56.30
22456;DHT22;11395;53.204;6.502;2023-03-12T02:36:23;19.70;55.80
22456;DHT22;11395;53.204;6.502;2023-03-12T02:38:51;19.70;56.00
22456;DHT22;11395;53.204;6.502;2023-03-12T02:46:39;19.60;55.10
22456;DHT22;11395;53.204;6.502;2023-03-12T02:49:06;19.60;56.40
22456;DHT22;11395;53.204;6.502;2023-03-12T02:51:33;19.50;55.60
22456;DHT22;11395;53.204;6.502;2023-03-12T02:54:00;19.50;56.30
22456;DHT22;11395;53.204;6.502;2023-03-12T02:56:27;19.50;56.10
22456;DHT22;11395;53.204;6.502;2023-03-12T02:58:54;19.40;56.80
22456;DHT22;11395;53.204;6.502;2023-03-12T03:01:22;19.40;56.40
22456;DHT22;11395;53.204;6.502;2023-03-12T03:03:48;19.40;55.90
22456;DHT22;11395;53.204;6.502;2023-03-12T03:06:15;19.40;56.90
22456;DHT22;11395;53.204;6.502;2023-03-12T03:08:42;19.30;56.50
22456;DHT22;11395;53.204;6.502;2023-03-12T03:11:08;19.30;56.70
22456;DHT22;11395;53.204;6.502;2023-03-12T03:13:35;19.30;57.50
22456;DHT22;11395;53.204;6.502;2023-03-12T03:16:02;19.20;57.70
22456;DHT22;11395;53.204;6.502;2023-03-12T03:18:29;19.20;57.00
22456;DHT22;11395;53.204;6.502;2023-03-12T03:21:01;19.20;57.20
22456;DHT22;11395;53.204;6.502;2023-03-12T03:23:31;19.30;55.70
22456;DHT22;11395;53.204;6.502;2023-03-12T03:25:58;19.30;56.60
22456;DHT22;11395;53.204;6.502;2023-03-12T03:28:26;19.30;56.70
22456;DHT22;11395;53.204;6.502;2023-03-12T03:30:54;19.40;57.10
22456;DHT22;11395;53.204;6.502;2023-03-12T03:33:23;19.40;56.70
22456;DHT22;11395;53.204;6.502;2023-03-12T03:35:50;19.50;56.50
22456;DHT22;11395;53.204;6.502;2023-03-12T03:38:17;19.50;56.50
22456;DHT22;11395;53.204;6.502;2023-03-12T03:40:43;19.50;56.40
22456;DHT22;11395;53.204;6.502;2023-03-12T03:43:10;19.50;55.40
22456;DHT22;11395;53.204;6.502;2023-03-12T03:45:37;19.60;56.10
22456;DHT22;11395;53.204;6.502;2023-03-12T03:48:04;19.60;56.10
22456;DHT22;11395;53.204;6.502;2023-03-12T03:50:30;19.60;55.60
22456;DHT22;11395;53.204;6.502;2023-03-12T03:52:57;19.60;55.50
22456;DHT22;11395;53.204;6.502;2023-03-12T03:55:23;19.60;55.80
22456;DHT22;11395;53.204;6.502;2023-03-12T03:57:49;19.60;55.20
22456;DHT22;11395;53.204;6.502;2023-03-12T04:00:16;19.60;56.20
22456;DHT22;11395;53.204;6.502;2023-03-12T04:02:46;19.60;55.00
22456;DHT22;11395;53.204;6.502;2023-03-12T04:05:14;19.50;55.70
22456;DHT22;11395;53.204;6.502;2023-03-12T04:07:44;19.50;54.70
22456;DHT22;11395;53.204;6.502;2023-03-12T04:10:11;19.50;54.70
22456;DHT22;11395;53.204;6.502;2023-03-12T04:12:38;19.50;55.20
22456;DHT22;11395;53.204;6.502;2023-03-12T04:15:05;19.50;55.20
22456;DHT22;11395;53.204;6.502;2023-03-12T04:17:31;19.60;55.00
22456;DHT22;11395;53.204;6.502;2023-03-12T04:19:58;19.60;55.10
22456;DHT22;11395;53.204;6.502;2023-03-12T04:22:24;19.70;55.00
22456;DHT22;11395;53.204;6.502;2023-03-12T04:24:50;19.70;55.10
22456;DHT22;11395;53.204;6.502;2023-03-12T04:27:21;19.80;54.60
22456;DHT22;11395;53.204;6.502;2023-03-12T04:29:47;20.00;55.10
22456;DHT22;11395;53.204;6.502;2023-03-12T04:32:14;20.00;54.20
22456;DHT22;11395;53.204;6.502;2023-03-12T04:34:41;20.20;54.20
22456;DHT22;11395;53.204;6.502;2023-03-12T04:37:08;20.30;53.80
22456;DHT22;11395;53.204;6.502;2023-03-12T04:39:37;20.40;53.90
22456;DHT22;11395;53.204;6.502;2023-03-12T04:42:03;20.50;54.30
22456;DHT22;11395;53.204;6.502;2023-03-12T04:44:30;20.60;53.50
22456;DHT22;11395;53.204;6.502;2023-03-12T04:46:57;20.80;53.60
22456;DHT22;11395;53.204;6.502;2023-03-12T04:49:25;20.80;53.40
22456;DHT22;11395;53.204;6.502;2023-03-12T04:51:53;21.00;53.10
22456;DHT22;11395;53.204;6.502;2023-03-12T04:54:20;21.10;53.00
22456;DHT22;11395;53.204;6.502;2023-03-12T04:56:48;21.20;52.80
22456;DHT22;11395;53.204;6.502;2023-03-12T04:59:15;21.20;52.80
22456;DHT22;11395;53.204;6.502;2023-03-12T05:01:43;21.40;52.60
22456;DHT22;11395;53.204;6.502;2023-03-12T05:04:16;21.50;52.60
22456;DHT22;11395;53.204;6.502;2023-03-12T05:06:42;21.50;52.80
22456;DHT22;11395;53.204;6.502;2023-03-12T05:09:08;21.60;52.50
22456;DHT22;11395;53.204;6.502;2023-03-12T05:11:35;21.60;52.40
22456;DHT22;11395;53.204;6.502;2023-03-12T05:14:01;21.70;52.40
22456;DHT22;11395;53.204;6.502;2023-03-12T05:16:28;21.70;52.30
22456;DHT22;11395;53.204;6.502;2023-03-12T05:18:54;21.70;52.20
22456;DHT22;11395;53.204;6.502;2023-03-12T05:21:23;21.70;52.20
22456;DHT22;11395;53.204;6.502;2023-03-12T05:23:52;21.80;52.20
22456;DHT22;11395;53.204;6.502;2023-03-12T05:26:21;21.90;52.10
22456;DHT22;11395;53.204;6.502;2023-03-12T05:28:50;21.90;52.00
22456;DHT22;11395;53.204;6.502;2023-03-12T05:31:19;22.00;51.90
22456;DHT22;11395;53.204;6.502;2023-03-12T05:33:45;22.10;51.90
22456;DHT22;11395;53.204;6.502;2023-03-12T05:36:13;22.20;51.60
22456;DHT22;11395;53.204;6.502;2023-03-12T05:38:40;22.30;51.50
22456;DHT22;11395;53.204;6.502;2023-03-12T05:41:15;22.40;51.50
22456;DHT22;11395;53.204;6.502;2023-03-12T05:43:42;22.50;51.00
22456;DHT22;11395;53.204;6.502;2023-03-12T05:46:10;22.60;51.10
22456;DHT22;11395;53.204;6.502;2023-03-12T05:48:36;22.70;50.80
22456;DHT22;11395;53.204;6.502;2023-03-12T05:51:03;22.80;51.00
22456;DHT22;11395;53.204;6.502;2023-03-12T05:53:31;22.90;50.70
22456;DHT22;11395;53.204;6.502;2023-03-12T05:56:05;23.00;51.00
22456;DHT22;11395;53.204;6.502;2023-03-12T05:58:33;23.10;50.90
22456;DHT22;11395;53.204;6.502;2023-03-12T06:01:00;23.20;50.70
22456;DHT22;11395;53.204;6.502;2023-03-12T06:03:27;23.30;50.90
22456;DHT22;11395;53.204;6.502;2023-03-12T06:05:53;23.40;51.00
22456;DHT22;11395;53.204;6.502;2023-03-12T06:08:22;23.40;51.10
22456;DHT22;11395;53.204;6.502;2023-03-12T06:10:52;23.50;51.20
22456;DHT22;11395;53.204;6.502;2023-03-12T06:13:21;23.60;50.80
22456;DHT22;11395;53.204;6.502;2023-03-12T06:15:48;23.70;50.90
22456;DHT22;11395;53.204;6.502;2023-03-12T06:18:14;23.70;50.90
22456;DHT22;11395;53.204;6.502;2023-03-12T06:20:41;23.70;50.60
22456;DHT22;11395;53.204;6.502;2023-03-12T06:23:08;23.80;50.80
22456;DHT22;11395;53.204;6.502;2023-03-12T06:25:34;23.80;50.70
22456;DHT22;11395;53.204;6.502;2023-03-12T06:28:00;23.80;50.70
22456;DHT22;11395;53.204;6.502;2023-03-12T06:30:26;23.80;50.50
22456;DHT22;11395;53.204;6.502;2023-03-12T06:32:53;23.80;50.50
22456;DHT22;11395;53.204;6.502;2023-03-12T06:35:19;23.80;50.60
22456;DHT22;11395;53.204;6.502;2023-03-12T06:37:45;23.80;50.60
22456;DHT22;11395;53.204;6.502;2023-03-12T06:40:12;23.80;50.70
22456;DHT22;11395;53.204;6.502;2023-03-12T06:42:38;23.80;50.80
22456;DHT22;11395;53.204;6.502;2023-03-12T06:45:05;23.80;51.20
22456;DHT22;11395;53.204;6.502;2023-03-12T06:47:31;23.80;51.10
22456;DHT22;11395;53.204;6.502;2023-03-12T06:49:58;23.80;51.30
22456;DHT22;11395;53.204;6.502;2023-03-12T06:52:25;23.80;51.40
22456;DHT22;11395;53.204;6.502;2023-03-12T06:54:51;23.80;51.50
22456;DHT22;11395;53.204;6.502;2023-03-12T06:57:18;23.80;51.60
22456;DHT22;11395;53.204;6.502;2023-03-12T06:59:44;23.80;51.60
22456;DHT22;11395;53.204;6.502;2023-03-12T07:02:10;23.90;51.70
22456;DHT22;11395;53.204;6.502;2023-03-12T07:04:37;23.90;51.60
22456;DHT22;11395;53.204;6.502;2023-03-12T07:07:03;23.90;51.70
22456;DHT22;11395;53.204;6.502;2023-03-12T07:09:29;24.00;51.70
22456;DHT22;11395;53.204;6.502;2023-03-12T07:11:57;24.10;51.70
22456;DHT22;11395;53.204;6.502;2023-03-12T07:14:23;24.10;51.70
22456;DHT22;11395;53.204;6.502;2023-03-12T07:16:49;24.10;51.60
22456;DHT22;11395;53.204;6.502;2023-03-12T07:19:15;24.20;51.60
22456;DHT22;11395;53.204;6.502;2023-03-12T07:21:44;24.20;51.40
22456;DHT22;11395;53.204;6.502;2023-03-12T07:24:10;24.20;51.60
22456;DHT22;11395;53.204;6.502;2023-03-12T07:26:36;24.20;51.50
22456;DHT22;11395;53.204;6.502;2023-03-12T07:29:03;24.20;51.60
22456;DHT22;11395;53.204;6.502;2023-03-12T07:31:29;24.20;51.00
22456;DHT22;11395;53.204;6.502;2023-03-12T07:33:56;24.10;50.60
22456;DHT22;11395;53.204;6.502;2023-03-12T07:36:22;24.00;50.90
22456;DHT22;11395;53.204;6.502;2023-03-12T07:38:48;24.00;51.20
22456;DHT22;11395;53.204;6.502;2023-03-12T07:41:15;24.00;51.30
22456;DHT22;11395;53.204;6.502;2023-03-12T07:43:41;24.00;51.20
22456;DHT22;11395;53.204;6.502;2023-03-12T07:46:07;24.00;51.20
22456;DHT22;11395;53.204;6.502;2023-03-12T07:48:34;23.90;51.20
22456;DHT22;11395;53.204;6.502;2023-03-12T07:51:00;23.90;51.20
22456;DHT22;11395;53.204;6.502;2023-03-12T07:53:26;23.90;51.20
22456;DHT22;11395;53.204;6.502;2023-03-12T07:55:53;23.90;51.20
22456;DHT22;11395;53.204;6.502;2023-03-12T07:58:20;23.90;51.20
22456;DHT22;11395;53.204;6.502;2023-03-12T08:00:46;23.90;51.10
22456;DHT22;11395;53.204;6.502;2023-03-12T08:03:12;23.90;51.20
22456;DHT22;11395;53.204;6.502;2023-03-12T08:05:38;23.90;51.50
22456;DHT22;11395;53.204;6.502;2023-03-12T08:08:05;23.90;51.40
22456;DHT22;11395;53.204;6.502;2023-03-12T08:10:35;23.90;51.40
22456;DHT22;11395;53.204;6.502;2023-03-12T08:13:01;24.00;50.80
22456;DHT22;11395;53.204;6.502;2023-03-12T08:15:28;24.10;51.10
22456;DHT22;11395;53.204;6.502;2023-03-12T08:17:54;24.10;51.40
22456;DHT22;11395;53.204;6.502;2023-03-12T08:20:20;24.20;51.20
22456;DHT22;11395;53.204;6.502;2023-03-12T08:22:47;24.20;51.50
22456;DHT22;11395;53.204;6.502;2023-03-12T08:25:13;24.20;51.10
22456;DHT22;11395;53.204;6.502;2023-03-12T08:27:39;24.10;51.00
22456;DHT22;11395;53.204;6.502;2023-03-12T08:30:06;23.90;51.00
22456;DHT22;11395;53.204;6.502;2023-03-12T08:32:33;24.00;51.20
22456;DHT22;11395;53.204;6.502;2023-03-12T08:34:59;23.90;51.10
22456;DHT22;11395;53.204;6.502;2023-03-12T08:37:26;23.90;51.20
22456;DHT22;11395;53.204;6.502;2023-03-12T08:39:52;23.80;51.30
22456;DHT22;11395;53.204;6.502;2023-03-12T08:42:18;23.80;51.30
22456;DHT22;11395;53.204;6.502;2023-03-12T08:44:44;23.80;51.30
22456;DHT22;11395;53.204;6.502;2023-03-12T08:47:11;23.80;51.30
22456;DHT22;11395;53.204;6.502;2023-03-12T08:49:37;23.70;51.30
22456;DHT22;11395;53.204;6.502;2023-03-12T08:52:03;23.80;51.80
22456;DHT22;11395;53.204;6.502;2023-03-12T08:54:30;23.80;51.70
22456;DHT22;11395;53.204;6.502;2023-03-12T08:56:56;23.80;51.90
22456;DHT22;11395;53.204;6.502;2023-03-12T08:59:22;23.80;52.10
22456;DHT22;11395;53.204;6.502;2023-03-12T09:01:48;23.90;51.70
22456;DHT22;11395;53.204;6.502;2023-03-12T09:04:15;23.90;51.60
22456;DHT22;11395;53.204;6.502;2023-03-12T09:06:42;23.90;51.40
22456;DHT22;11395;53.204;6.502;2023-03-12T09:09:08;24.00;51.70
22456;DHT22;11395;53.204;6.502;2023-03-12T09:11:36;24.00;51.60
22456;DHT22;11395;53.204;6.502;2023-03-12T09:14:04;24.10;51.50
22456;DHT22;11395;53.204;6.502;2023-03-12T09:16:31;24.10;51.60
22456;DHT22;11395;53.204;6.502;2023-03-12T09:18:57;24.10;51.70
22456;DHT22;11395;53.204;6.502;2023-03-12T09:21:23;24.10;51.90
22456;DHT22;11395;53.204;6.502;2023-03-12T09:23:49;24.10;51.80
22456;DHT22;11395;53.204;6.502;2023-03-12T09:26:15;24.10;51.60
22456;DHT22;11395;53.204;6.502;2023-03-12T09:28:42;24.10;51.50
22456;DHT22;11395;53.204;6.502;2023-03-12T09:31:10;24.10;51.60
22456;DHT22;11395;53.204;6.502;2023-03-12T09:33:37;24.10;51.50
22456;DHT22;11395;53.204;6.502;2023-03-12T09:36:03;24.10;51.40
22456;DHT22;11395;53.204;6.502;2023-03-12T09:38:30;24.00;51.40
22456;DHT22;11395;53.204;6.502;2023-03-12T09:40:57;24.00;51.50
22456;DHT22;11395;53.204;6.502;2023-03-12T09:43:39;23.90;51.50
22456;DHT22;11395;53.204;6.502;2023-03-12T09:46:12;23.90;51.40
22456;DHT22;11395;53.204;6.502;2023-03-12T09:48:39;23.90;51.50
22456;DHT22;11395;53.204;6.502;2023-03-12T09:51:16;23.80;51.60
22456;DHT22;11395;53.204;6.502;2023-03-12T09:53:49;23.80;51.40
22456;DHT22;11395;53.204;6.502;2023-03-12T09:56:18;23.70;51.50
22456;DHT22;11395;53.204;6.502;2023-03-12T09:58:46;23.70;51.60
22456;DHT22;11395;53.204;6.502;2023-03-12T10:01:26;23.70;51.60
22456;DHT22;11395;53.204;6.502;2023-03-12T10:24:11;23.70;51.50
22456;DHT22;11395;53.204;6.502;2023-03-12T10:26:35;23.80;51.60
22456;DHT22;11395;53.204;6.502;2023-03-12T10:29:15;23.80;51.30
22456;DHT22;11395;53.204;6.502;2023-03-12T10:37:59;23.80;50.90
22456;DHT22;11395;53.204;6.502;2023-03-12T10:40:20;23.80;50.90
22456;DHT22;11395;53.204;6.502;2023-03-12T10:42:47;23.80;50.90
22456;DHT22;11395;53.204;6.502;2023-03-12T10:45:42;23.80;50.80
22456;DHT22;11395;53.204;6.502;2023-03-12T10:48:18;23.80;50.80
22456;DHT22;11395;53.204;6.502;2023-03-12T10:51:08;23.70;50.90
22456;DHT22;11395;53.204;6.502;2023-03-12T10:53:38;23.70;50.80
22456;DHT22;11395;53.204;6.502;2023-03-12T10:56:16;23.70;50.80
22456;DHT22;11395;53.204;6.502;2023-03-12T10:58:48;23.60;50.70
22456;DHT22;11395;53.204;6.502;2023-03-12T11:01:17;23.70;51.90
22456;DHT22;11395;53.204;6.502;2023-03-12T11:03:44;23.60;51.00
22456;DHT22;11395;53.204;6.502;2023-03-12T11:06:27;23.50;52.80
22456;DHT22;11395;53.204;6.502;2023-03-12T11:11:35;23.40;51.10
22456;DHT22;11395;53.204;6.502;2023-03-12T11:16:41;23.40;51.10
22456;DHT22;11395;53.204;6.502;2023-03-12T11:19:12;23.40;51.10
22456;DHT22;11395;53.204;6.502;2023-03-12T11:21:39;23.40;51.20
22456;DHT22;11395;53.204;6.502;2023-03-12T11:24:11;23.50;51.20
22456;DHT22;11395;53.204;6.502;2023-03-12T11:26:50;23.60;51.10
22456;DHT22;11395;53.204;6.502;2023-03-12T11:29:28;23.70;51.20
22456;DHT22;11395;53.204;6.502;2023-03-12T11:32:15;23.70;51.10
22456;DHT22;11395;53.204;6.502;2023-03-12T11:34:43;23.80;51.10
22456;DHT22;11395;53.204;6.502;2023-03-12T11:45:47;23.90;50.70
22456;DHT22;11395;53.204;6.502;2023-03-12T11:48:22;23.90;50.60
22456;DHT22;11395;53.204;6.502;2023-03-12T11:56:37;23.90;50.60
22456;DHT22;11395;53.204;6.502;2023-03-12T12:02:20;23.80;50.50
22456;DHT22;11395;53.204;6.502;2023-03-12T12:07:41;23.80;50.40
22456;DHT22;11395;53.204;6.502;2023-03-12T12:13:37;23.70;50.50
22456;DHT22;11395;53.204;6.502;2023-03-12T12:24:15;23.60;50.60
22456;DHT22;11395;53.204;6.502;2023-03-12T12:26:48;23.60;50.70
22456;DHT22;11395;53.204;6.502;2023-03-12T12:31:58;23.50;50.80
22456;DHT22;11395;53.204;6.502;2023-03-12T12:37:32;23.50;50.90
22456;DHT22;11395;53.204;6.502;2023-03-12T12:40:26;23.60;51.20
22456;DHT22;11395;53.204;6.502;2023-03-12T12:45:46;23.70;51.20
22456;DHT22;11395;53.204;6.502;2023-03-12T12:48:21;23.70;51.10
22456;DHT22;11395;53.204;6.502;2023-03-12T12:50:51;23.80;51.10
22456;DHT22;11395;53.204;6.502;2023-03-12T12:53:23;23.90;51.00
22456;DHT22;11395;53.204;6.502;2023-03-12T12:59:08;24.00;50.90
22456;DHT22;11395;53.204;6.502;2023-03-12T13:01:42;24.00;50.80
22456;DHT22;11395;53.204;6.502;2023-03-12T13:04:12;24.10;50.90
22456;DHT22;11395;53.204;6.502;2023-03-12T13:07:00;24.10;50.80
22456;DHT22;11395;53.204;6.502;2023-03-12T13:09:56;24.10;50.70
22456;DHT22;11395;53.204;6.502;2023-03-12T13:14:54;24.10;50.60
22456;DHT22;11395;53.204;6.502;2023-03-12T13:30:58;24.00;50.90
22456;DHT22;11395;53.204;6.502;2023-03-12T13:33:41;24.00;50.70
22456;DHT22;11395;53.204;6.502;2023-03-12T13:41:40;23.80;50.70
22456;DHT22;11395;53.204;6.502;2023-03-12T13:57:42;23.60;50.90
22456;DHT22;11395;53.204;6.502;2023-03-12T14:00:28;23.70;51.10
22456;DHT22;11395;53.204;6.502;2023-03-12T14:05:51;23.70;51.20
22456;DHT22;11395;53.204;6.502;2023-03-12T14:16:31;23.90;51.40
22456;DHT22;11395;53.204;6.502;2023-03-12T14:18:58;23.90;51.30
22456;DHT22;11395;53.204;6.502;2023-03-12T14:21:32;24.00;51.40
22456;DHT22;11395;53.204;6.502;2023-03-12T14:24:02;24.10;51.40
22456;DHT22;11395;53.204;6.502;2023-03-12T14:27:10;24.10;51.80
22456;DHT22;11395;53.204;6.502;2023-03-12T14:30:06;24.10;52.50
22456;DHT22;11395;53.204;6.502;2023-03-12T14:32:42;25.20;52.90
22456;DHT22;11395;53.204;6.502;2023-03-12T14:35:22;24.10;51.80
22456;DHT22;11395;53.204;6.502;2023-03-12T14:38:04;24.10;51.30
22456;DHT22;11395;53.204;6.502;2023-03-12T14:41:00;24.10;52.30
22456;DHT22;11395;53.204;6.502;2023-03-12T14:43:31;24.10;51.80
22456;DHT22;11395;53.204;6.502;2023-03-12T14:46:04;24.10;51.40
22456;DHT22;11395;53.204;6.502;2023-03-12T14:48:36;24.10;51.80
22456;DHT22;11395;53.204;6.502;2023-03-12T14:54:04;24.20;51.50
22456;DHT22;11395;53.204;6.502;2023-03-12T14:56:51;24.00;52.40
22456;DHT22;11395;53.204;6.502;2023-03-12T14:59:29;23.70;52.10
22456;DHT22;11395;53.204;6.502;2023-03-12T15:02:13;23.90;51.50
22456;DHT22;11395;53.204;6.502;2023-03-12T15:09:07;23.80;52.60
22456;DHT22;11395;53.204;6.502;2023-03-12T15:14:26;23.70;51.60
22456;DHT22;11395;53.204;6.502;2023-03-12T15:16:55;22.40;52.20
22456;DHT22;11395;53.204;6.502;2023-03-12T15:19:46;23.50;52.60
22456;DHT22;11395;53.204;6.502;2023-03-12T15:22:50;25.30;52.90
22456;DHT22;11395;53.204;6.502;2023-03-12T15:25:42;23.70;52.50
22456;DHT22;11395;53.204;6.502;2023-03-12T15:34:35;24.80;52.70
22456;DHT22;11395;53.204;6.502;2023-03-12T15:37:36;23.60;51.90
22456;DHT22;11395;53.204;6.502;2023-03-12T15:44:55;22.50;51.40
22456;DHT22;11395;53.204;6.502;2023-03-12T16:01:56;24.10;52.20
22456;DHT22;11395;53.204;6.502;2023-03-12T16:04:25;24.10;51.90
22456;DHT22;11395;53.204;6.502;2023-03-12T16:06:52;24.10;52.40
22456;DHT22;11395;53.204;6.502;2023-03-12T16:09:22;24.10;52.50
22456;DHT22;11395;53.204;6.502;2023-03-12T16:11:53;24.10;52.30
22456;DHT22;11395;53.204;6.502;2023-03-12T16:16:52;24.10;52.80
22456;DHT22;11395;53.204;6.502;2023-03-12T16:19:20;24.00;52.20
22456;DHT22;11395;53.204;6.502;2023-03-12T16:21:47;24.00;52.10
22456;DHT22;11395;53.204;6.502;2023-03-12T16:24:14;23.90;51.90
22456;DHT22;11395;53.204;6.502;2023-03-12T16:26:52;23.90;52.00
22456;DHT22;11395;53.204;6.502;2023-03-12T16:29:20;23.80;52.20
22456;DHT22;11395;53.204;6.502;2023-03-12T16:31:55;23.60;52.10
22456;DHT22;11395;53.204;6.502;2023-03-12T16:34:28;23.90;52.00
22456;DHT22;11395;53.204;6.502;2023-03-12T16:36:54;23.80;53.50
22456;DHT22;11395;53.204;6.502;2023-03-12T16:39:24;23.80;54.50
22456;DHT22;11395;53.204;6.502;2023-03-12T16:42:23;23.80;52.10
22456;DHT22;11395;53.204;6.502;2023-03-12T16:44:51;23.60;53.30
22456;DHT22;11395;53.204;6.502;2023-03-12T16:47:21;23.60;53.00
22456;DHT22;11395;53.204;6.502;2023-03-12T16:50:18;23.70;54.30
22456;DHT22;11395;53.204;6.502;2023-03-12T16:52:45;23.60;52.50
22456;DHT22;11395;53.204;6.502;2023-03-12T16:55:13;23.70;52.70
22456;DHT22;11395;53.204;6.502;2023-03-12T16:57:46;23.70;52.70
22456;DHT22;11395;53.204;6.502;2023-03-12T17:00:29;23.80;53.30
22456;DHT22;11395;53.204;6.502;2023-03-12T17:03:17;24.00;52.50
22456;DHT22;11395;53.204;6.502;2023-03-12T17:05:58;23.80;52.40
22456;DHT22;11395;53.204;6.502;2023-03-12T17:08:30;23.50;53.00
22456;DHT22;11395;53.204;6.502;2023-03-12T17:10:57;23.80;54.60
22456;DHT22;11395;53.204;6.502;2023-03-12T17:13:26;23.80;52.20
22456;DHT22;11395;53.204;6.502;2023-03-12T17:15:53;23.90;52.10
22456;DHT22;11395;53.204;6.502;2023-03-12T17:18:20;23.90;52.20
22456;DHT22;11395;53.204;6.502;2023-03-12T17:20:48;23.90;52.70
22456;DHT22;11395;53.204;6.502;2023-03-12T17:23:14;23.90;52.70
22456;DHT22;11395;53.204;6.502;2023-03-12T17:25:42;23.90;53.00
22456;DHT22;11395;53.204;6.502;2023-03-12T17:28:08;23.80;52.30
22456;DHT22;11395;53.204;6.502;2023-03-12T17:30:35;23.80;52.20
22456;DHT22;11395;53.204;6.502;2023-03-12T17:33:11;23.80;52.30
22456;DHT22;11395;53.204;6.502;2023-03-12T17:35:38;24.20;52.80
22456;DHT22;11395;53.204;6.502;2023-03-12T17:38:04;23.80;52.70
22456;DHT22;11395;53.204;6.502;2023-03-12T17:40:31;23.70;53.00
22456;DHT22;11395;53.204;6.502;2023-03-12T17:42:57;23.70;53.70
22456;DHT22;11395;53.204;6.502;2023-03-12T17:45:23;23.70;53.10
22456;DHT22;11395;53.204;6.502;2023-03-12T17:47:50;23.70;53.70
22456;DHT22;11395;53.204;6.502;2023-03-12T17:50:16;22.80;52.90
22456;DHT22;11395;53.204;6.502;2023-03-12T17:52:43;23.60;52.70
22456;DHT22;11395;53.204;6.502;2023-03-12T17:55:09;23.50;52.90
22456;DHT22;11395;53.204;6.502;2023-03-12T17:57:36;23.50;53.40
22456;DHT22;11395;53.204;6.502;2023-03-12T18:00:03;23.40;53.30
22456;DHT22;11395;53.204;6.502;2023-03-12T18:02:39;23.40;52.50
22456;DHT22;11395;53.204;6.502;2023-03-12T18:05:07;23.40;52.40
22456;DHT22;11395;53.204;6.502;2023-03-12T18:07:33;23.40;52.60
22456;DHT22;11395;53.204;6.502;2023-03-12T18:10:00;23.40;52.80
22456;DHT22;11395;53.204;6.502;2023-03-12T18:12:26;23.40;52.80
22456;DHT22;11395;53.204;6.502;2023-03-12T18:14:52;23.50;52.90
22456;DHT22;11395;53.204;6.502;2023-03-12T18:17:18;23.50;53.50
22456;DHT22;11395;53.204;6.502;2023-03-12T18:19:45;23.60;52.80
22456;DHT22;11395;53.204;6.502;2023-03-12T18:22:11;23.60;52.70
22456;DHT22;11395;53.204;6.502;2023-03-12T18:24:40;23.70;52.70
22456;DHT22;11395;53.204;6.502;2023-03-12T18:27:06;23.70;52.60
22456;DHT22;11395;53.204;6.502;2023-03-12T18:29:32;23.70;52.60
22456;DHT22;11395;53.204;6.502;2023-03-12T18:32:00;23.80;52.60
22456;DHT22;11395;53.204;6.502;2023-03-12T18:34:26;23.80;52.50